Latest Weather Observations for Kempsey Airport

IDN60801

Issued at 2:32 pm EDT Wednesday 22 February 2017 (issued every 30 minutes, with the page automatically refreshed every 10 minutes)

About weather observations | Map of weather stations | Latest weather observations for NSW | Other Formats
Station Details ID: 059007 Name: KEMPSEY AIRPORT AWS Lat: -31.07 Lon: 152.77 Height: 13.0 m
Data from the previous 72 hours. | See also: Recent months at Kempsey Airport
Date/Time
EDT
Temp
°C
App
Temp
°C
Dew
Point
°C
Rel
Hum
%
Delta-T
°C
Wind Press
QNH
hPa
Press
MSL
hPa
Rain since
9am
mm
Dir  Spd
km/h
Gust
km/h
Spd
kts
Gust
kts
22/02:30pm 27.8 26.7 16.4 50 7.1 ENE 17 26 9 14 1019.8 1019.7 0.0
22/02:00pm 28.9 27.1 16.1 46 7.9 ENE 20 32 11 17 1020.0 1019.9 0.0
22/01:30pm 27.4 26.3 15.4 48 7.3 ENE 15 24 8 13 1020.2 1020.1 0.0
22/01:00pm 27.2 25.6 14.9 47 7.4 E 17 28 9 15 1020.4 1020.3 0.0
22/12:30pm 29.0 29.0 17.2 49 7.4 E 13 26 7 14 1020.7 1020.6 0.0
22/12:00pm 26.5 25.8 15.5 50 6.7 NNE 13 20 7 11 1021.1 1021.0 0.0
22/11:30am 26.6 27.0 16.2 52 6.4 NNE 9 19 5 10 1021.3 1021.2 0.0
22/11:00am 25.4 25.2 15.7 55 5.9 N 11 17 6 9 1021.6 1021.5 0.0
22/10:30am 25.9 26.0 15.6 53 6.3 NE 9 13 5 7 1021.7 1021.6 0.0
22/10:00am 25.8 25.3 15.8 54 6.1 ENE 13 19 7 10 1021.7 1021.6 0.0
22/09:30am 25.0 25.8 16.4 59 5.3 NE 7 13 4 7 1021.6 1021.5 0.0
22/09:00am 24.4 25.7 17.6 66 4.2 SW 7 11 4 6 1021.6 1021.5 0.0
22/08:30am 22.9 24.3 17.8 73 3.2 W 7 11 4 6 1021.5 1021.4 0.0
22/08:00am 22.4 23.9 18.0 76 2.7 W 7 11 4 6 1021.4 1021.3 0.0
22/07:30am 20.6 22.4 17.4 82 2.0 WNW 4 7 2 4 1021.2 1021.1 0.0
22/07:00am 20.6 23.3 17.8 84 1.7 CALM 0 0 0 0 1020.9 1020.8 0.0
22/06:30am 20.6 23.2 17.6 83 1.8 CALM 0 0 0 0 1020.7 1020.6 0.0
22/06:00am 20.5 22.3 17.5 83 1.8 SW 4 7 2 4 1020.4 1020.3 0.0
22/05:30am 20.7 23.0 17.7 83 1.8 WNW 2 7 1 4 1019.9 1019.8 0.0
22/05:00am 20.7 23.3 17.5 82 2.0 CALM 0 0 0 0 1019.6 1019.5 0.0
22/04:30am 20.5 22.3 17.5 83 1.8 WNW 4 7 2 4 1019.7 1019.6 0.0
22/04:00am 20.9 22.3 17.3 80 2.2 WNW 6 7 3 4 1019.5 1019.4 0.0
22/03:30am 21.0 22.4 17.4 80 2.2 WSW 6 7 3 4 1019.5 1019.4 0.0
22/03:00am 21.4 22.2 17.2 77 2.6 WNW 9 13 5 7 1019.7 1019.6 0.0
22/02:30am 21.2 22.0 17.4 79 2.3 W 9 11 5 6 1019.7 1019.6 0.0
22/02:00am 21.3 22.5 17.3 78 2.4 WSW 7 11 4 6 1019.7 1019.6 0.0
22/01:30am 21.7 22.9 17.3 76 2.7 WSW 7 9 4 5 1019.9 1019.8 0.0
22/01:00am 21.8 23.0 17.4 76 2.7 WSW 7 9 4 5 1020.3 1020.2 0.0
22/12:30am 21.9 23.0 17.1 74 2.9 SW 7 9 4 5 1020.5 1020.4 0.0
22/12:00am 22.0 24.1 17.2 74 2.9 S 2 7 1 4 1020.7 1020.6 0.0
 
Date/Time
EDT
Temp
°C
App
Temp
°C
Dew
Point
°C
Rel
Hum
%
Delta-T
°C
Wind Press
QNH
hPa
Press
MSL
hPa
Rain since
9am
mm
Dir  Spd
km/h
Gust
km/h
Spd
kts
Gust
kts
21/11:30pm 21.8 22.6 17.4 76 2.7 WSW 9 11 5 6 1021.0 1020.9 0.0
21/11:00pm 22.0 24.6 17.4 75 2.8 CALM 0 0 0 0 1020.8 1020.7 0.0
21/10:30pm 22.2 24.6 17.1 73 3.1 CALM 0 0 0 0 1020.9 1020.8 0.0
21/10:00pm 22.8 25.3 17.3 71 3.4 CALM 0 0 0 0 1020.7 1020.6 0.0
21/09:30pm 23.2 24.9 16.3 65 4.2 ENE 2 6 1 3 1020.8 1020.7 0.0
21/09:00pm 23.2 25.1 15.8 63 4.5 CALM 0 6 0 3 1020.6 1020.5 0.0
21/08:30pm 23.3 24.0 15.6 62 4.6 ENE 6 7 3 4 1020.2 1020.1 0.0
21/08:00pm 24.0 24.5 15.5 59 5.1 NE 7 11 4 6 1019.9 1019.8 0.0
21/07:30pm 24.4 24.4 15.3 57 5.5 ENE 9 13 5 7 1019.7 1019.6 0.0
21/07:00pm 24.6 23.8 15.0 55 5.7 ENE 13 20 7 11 1019.4 1019.3 0.0
21/06:30pm 24.8 23.5 14.9 54 5.9 ENE 15 19 8 10 1019.0 1018.9 0.0
21/06:00pm 25.0 23.3 14.8 53 6.1 E 17 24 9 13 1018.7 1018.6 0.0
21/05:30pm 25.1 23.7 14.6 52 6.3 ENE 15 26 8 14 1018.5 1018.4 0.0
21/05:00pm 25.1 22.7 14.3 51 6.4 ENE 20 28 11 15 1018.1 1018.0 0.0
21/04:30pm 26.3 24.0 14.7 48 7.0 E 20 30 11 16 1017.9 1017.8 0.0
21/04:00pm 26.4 23.2 14.2 47 7.3 E 24 35 13 19 1017.6 1017.5 0.0
21/03:30pm 27.1 24.2 15.1 47 7.3 ENE 24 33 13 18 1017.5 1017.4 0.0
21/03:00pm 28.0 25.8 16.0 48 7.4 E 22 32 12 17 1017.5 1017.4 0.0
21/02:30pm 27.9 25.8 16.2 49 7.2 E 22 32 12 17 1017.7 1017.6 0.0
21/02:00pm 28.4 26.5 16.7 49 7.3 E 22 37 12 20 1017.9 1017.8 0.0
21/01:30pm 28.2 27.0 16.1 47 7.5 ENE 17 28 9 15 1018.2 1018.1 0.0
21/01:00pm 28.0 26.2 15.6 46 7.6 E 19 26 10 14 1018.4 1018.3 0.0
21/12:30pm 28.0 27.0 15.6 46 7.6 E 15 22 8 12 1018.6 1018.5 0.0
21/12:00pm 27.4 26.4 15.7 48 7.1 ENE 15 22 8 12 1019.0 1018.9 0.0
21/11:30am 25.9 25.3 15.6 53 6.3 E 13 20 7 11 1019.3 1019.2 0.0
21/11:00am 26.5 27.6 14.6 48 7.1 SSE 2 11 1 6 1019.4 1019.3 0.0
21/10:30am 24.7 24.7 14.2 52 6.2 NW 7 11 4 6 1019.5 1019.4 0.0
21/10:00am 22.7 22.4 14.5 60 4.8 WNW 9 11 5 6 1019.3 1019.2 0.0
21/09:30am 20.3 19.8 14.9 71 3.2 WNW 11 17 6 9 1019.2 1019.1 0.0
21/09:00am 18.8 18.2 14.5 76 2.5 WNW 11 15 6 8 1019.0 1018.9 0.2
21/08:30am 17.2 16.0 13.9 81 1.9 WNW 13 17 7 9 1018.7 1018.6 0.2
21/08:00am 16.3 15.4 13.8 85 1.4 WNW 11 17 6 9 1018.2 1018.1 0.2
21/07:30am 15.2 14.9 13.4 89 1.0 SW 7 11 4 6 1017.7 1017.6 0.2
21/07:00am 14.0 13.1 12.6 91 0.8 WSW 9 11 5 6 1017.3 1017.2 0.2
21/06:30am 13.6 12.5 12.0 90 0.9 WSW 9 11 5 6 1016.8 1016.7 0.2
21/06:00am 13.9 13.3 12.3 90 0.9 WSW 7 9 4 5 1016.7 1016.6 0.2
21/05:30am 13.9 12.8 12.1 89 1.0 W 9 9 5 5 1016.5 1016.4 0.2
21/05:00am 14.1 13.4 12.1 88 1.1 WSW 7 11 4 6 1016.1 1016.0 0.2
21/04:30am 14.3 13.8 12.2 87 1.1 WSW 6 9 3 5 1016.1 1016.0 0.2
21/04:00am 14.6 14.1 12.6 88 1.1 W 7 9 4 5 1015.9 1015.8 0.2
21/03:30am 14.4 13.8 12.3 87 1.1 WSW 7 11 4 6 1015.7 1015.6 0.2
21/03:00am 14.6 13.7 12.6 88 1.1 WSW 9 13 5 7 1016.1 1016.0 0.2
21/02:30am 14.9 14.4 12.8 87 1.2 WSW 7 9 4 5 1016.1 1016.0 0.2
21/02:00am 14.6 14.6 12.3 86 1.2 WNW 4 9 2 5 1016.2 1016.1 0.2
21/01:30am 15.1 14.6 12.2 83 1.6 WSW 6 7 3 4 1016.4 1016.3 0.2
21/01:00am 15.7 15.2 12.8 83 1.6 WSW 7 9 4 5 1016.5 1016.4 0.2
21/12:30am 15.5 15.0 12.8 84 1.5 WSW 7 9 4 5 1016.6 1016.5 0.2
21/12:00am 16.6 16.2 12.9 79 2.1 W 7 9 4 5 1016.7 1016.6 0.2
 
Date/Time
EDT
Temp
°C
App
Temp
°C
Dew
Point
°C
Rel
Hum
%
Delta-T
°C
Wind Press
QNH
hPa
Press
MSL
hPa
Rain since
9am
mm
Dir  Spd
km/h
Gust
km/h
Spd
kts
Gust
kts
20/11:30pm 16.6 16.1 12.6 77 2.2 W 7 9 4 5 1016.5 1016.4 0.2
20/11:00pm 16.6 15.7 12.6 77 2.2 W 9 9 5 5 1016.4 1016.3 0.2
20/10:30pm 17.3 16.7 12.4 73 2.7 W 7 9 4 5 1016.3 1016.2 0.2
20/10:00pm 17.4 16.9 12.5 73 2.7 W 7 9 4 5 1016.1 1016.0 0.2
20/09:30pm 17.4 16.7 13.1 76 2.4 W 9 9 5 5 1015.8 1015.7 0.2
20/09:00pm 18.3 19.2 13.0 71 3.0 CALM 0 0 0 0 1015.3 1015.2 0.2
20/08:30pm 20.1 20.9 12.6 62 4.2 CALM 0 0 0 0 1014.8 1014.7 0.2
20/08:00pm 21.3 20.6 11.3 53 5.5 ESE 6 6 3 3 1014.2 1014.1 0.2
20/07:30pm 22.4 21.0 10.9 48 6.4 ESE 9 13 5 7 1013.4 1013.3 0.2
20/07:00pm 24.0 21.6 9.9 41 7.7 ESE 13 17 7 9 1012.7 1012.6 0.2
20/06:30pm 24.8 21.6 9.9 39 8.2 E 17 22 9 12 1012.0 1011.9 0.2
20/06:00pm 25.4 22.2 10.1 38 8.5 E 17 24 9 13 1011.4 1011.3 0.2
20/05:30pm 25.9 22.6 9.7 36 8.9 E 17 28 9 15 1011.0 1010.9 0.2
20/05:00pm 26.3 22.9 9.2 34 9.4 E 17 24 9 13 1010.6 1010.5 0.2
20/04:30pm 26.6 22.8 9.0 33 9.6 E 19 30 10 16 1010.2 1010.1 0.2
20/04:00pm 26.6 22.9 9.5 34 9.4 E 19 28 10 15 1010.0 1009.9 0.2
20/03:30pm 26.9 22.7 8.4 31 10.0 E 20 32 11 17 1010.0 1009.9 0.2
20/03:00pm 26.8 22.8 9.2 33 9.7 E 20 30 11 16 1010.1 1010.0 0.2
20/02:30pm 27.2 23.1 8.6 31 10.1 E 20 28 11 15 1010.1 1010.0 0.2
20/02:00pm 27.7 24.1 10.4 34 9.7 ENE 20 28 11 15 1010.4 1010.3 0.2
20/01:30pm 28.2 24.5 6.3 25 11.5 NNE 15 24 8 13 1010.5 1010.4 0.2
20/01:00pm 27.7 24.8 6.5 26 11.2 ENE 11 20 6 11 1010.9 1010.8 0.2
20/12:30pm 27.2 25.0 5.5 25 11.2 NE 6 19 3 10 1011.2 1011.1 0.2
20/12:00pm 27.2 25.6 8.1 30 10.3 WSW 6 11 3 6 1011.4 1011.3 0.2
20/11:30am 26.6 24.3 5.5 26 10.9 NNW 7 11 4 6 1011.8 1011.7 0.2
20/11:00am 25.9 23.2 5.5 27 10.5 N 9 13 5 7 1011.8 1011.7 0.2
20/10:30am 25.3 23.1 5.5 28 10.1 WSW 6 11 3 6 1012.1 1012.0 0.2
20/10:00am 24.7 22.7 6.4 31 9.5 SW 6 13 3 7 1012.0 1011.9 0.0
20/09:30am 23.5 21.9 10.2 43 7.3 SW 9 17 5 9 1011.7 1011.6 0.0
20/09:00am 22.3 21.4 12.5 53 5.6 W 9 13 5 7 1011.5 1011.4 14.4
20/08:30am 20.3 20.3 15.3 73 3.0 WNW 9 11 5 6 1011.3 1011.2 14.4
20/08:00am 19.1 20.1 16.9 87 1.3 W 7 11 4 6 1011.0 1010.9 14.4
20/07:30am 17.1 17.4 16.0 93 0.6 WSW 9 13 5 7 1010.7 1010.6 14.4
20/07:00am 16.1 15.3 15.0 93 0.6 W 13 15 7 8 1010.0 1009.9 14.4
20/06:30am 16.2 17.4 14.9 92 0.7 W 2 6 1 3 1009.8 1009.7 14.4
20/06:00am 17.0 18.9 15.7 92 0.8 CALM 0 0 0 0 1009.3 1009.2 14.4
20/05:30am 16.5 17.9 14.3 87 1.3 CALM 0 0 0 0 1008.6 1008.5 14.4
20/05:00am 18.1 20.2 16.3 89 1.1 CALM 0 2 0 1 1008.3 1008.2 14.4
20/04:30am 18.6 19.6 16.8 89 1.1 W 7 11 4 6 1007.8 1007.7 14.4
20/04:00am 18.5 20.0 16.7 89 1.1 S 4 9 2 5 1007.2 1007.1 14.4
20/03:30am 18.5 20.3 16.5 88 1.2 SE 2 7 1 4 1007.2 1007.1 14.4
20/03:00am 18.9 20.1 16.9 88 1.2 WNW 6 17 3 9 1006.9 1006.8 14.4
20/02:30am 18.8 21.1 16.8 88 1.2 CALM 0 0 0 0 1007.1 1007.0 14.4
20/02:00am 19.2 20.4 16.8 86 1.5 NNW 6 11 3 6 1006.9 1006.8 14.4
20/01:30am 19.2 18.6 17.5 90 1.0 NNW 17 22 9 12 1007.0 1006.9 14.4
20/01:00am 19.2 19.4 17.7 91 0.9 N 13 17 7 9 1006.5 1006.4 14.4
20/12:30am 19.4 20.4 17.7 90 1.0 NE 9 11 5 6 1006.8 1006.7 14.4
20/12:00am 19.7 20.8 18.0 90 1.1 WNW 9 15 5 8 1007.3 1007.2 14.4
 
Date/Time
EDT
Temp
°C
App
Temp
°C
Dew
Point
°C
Rel
Hum
%
Delta-T
°C
Wind Press
QNH
hPa
Press
MSL
hPa
Rain since
9am
mm
Dir  Spd
km/h
Gust
km/h
Spd
kts
Gust
kts
19/11:30pm 20.1 21.4 18.4 90 1.1 ENE 9 13 5 7 1006.9 1006.8 14.4
19/11:00pm 20.3 21.8 18.8 91 0.9 NNE 9 13 5 7 1008.5 1008.4 14.2
19/10:30pm 20.4 21.1 18.9 91 0.9 NNE 13 17 7 9 1009.4 1009.3 13.2
19/10:00pm 20.9 24.3 19.4 91 1.0 CALM 0 7 0 4 1009.3 1009.2 11.0
19/09:30pm 20.8 24.2 19.3 91 0.9 CALM 0 0 0 0 1008.6 1008.5 10.2
19/09:00pm 20.7 22.8 19.0 90 1.1 NW 6 9 3 5 1007.6 1007.5 10.0
19/08:30pm 20.6 22.6 18.7 89 1.2 NW 6 9 3 5 1007.5 1007.4 9.6
19/08:00pm 20.6 22.0 18.7 89 1.2 WSW 9 13 5 7 1007.2 1007.1 8.6
19/07:30pm 21.1 21.7 18.7 86 1.5 W 13 17 7 9 1007.2 1007.1 7.4
19/07:00pm 22.0 23.4 19.5 86 1.6 WSW 11 13 6 7 1006.7 1006.6 7.2
19/06:30pm 23.0 25.5 21.1 89 1.2 W 9 13 5 7 1007.0 1006.9 4.4
19/06:00pm 23.3 25.3 21.6 90 1.1 SW 13 17 7 9 1006.5 1006.4 3.4
19/05:30pm 23.8 26.5 21.3 86 1.6 SW 9 11 5 6 1006.0 1005.9 1.8
19/05:00pm 25.1 26.7 20.8 77 2.8 SSE 13 17 7 9 1005.3 1005.2 0.0
19/04:30pm 26.1 28.5 20.9 73 3.4 ESE 9 13 5 7 1005.0 1004.9 0.0
19/04:00pm 26.2 28.3 20.1 69 4.0 E 9 13 5 7 1005.6 1005.5 0.0
19/03:30pm 26.6 28.1 19.7 66 4.5 E 11 17 6 9 1005.7 1005.6 0.0
19/03:00pm 27.5 28.5 20.3 65 4.7 E 15 24 8 13 1006.0 1005.9 0.0

Other Formats:

Comma delimited format used in spreadsheet applications
http://www.bom.gov.au/fwo/IDN60801/IDN60801.94785.axf

JavaScript Object Notation format (JSON) in row-major order
http://www.bom.gov.au/fwo/IDN60801/IDN60801.94785.json